Time;durP1;ratioP1;P1;durP2;ratioP2;P2;SDS_P1;SDS_P2;PMS_P1;PMS_P2;Temp;Humidity;BMP_temperature;BMP_pressure;BME280_temperature;BME280_humidity;BME280_pressure;Samples;Min_cycle;Max_cycle;Signal;HPM_P1;HPM_P2
2022/12/01 00:00:20;;;;;;;247.43;49.65;;;4.90;99.90;;;3.61;100.00;97847.75;5112277;28;20951;-73
2022/12/01 00:02:46;;;;;;;217.45;47.28;;;4.80;99.90;;;3.61;100.00;97853.78;5111476;28;20969;-73
2022/12/01 00:05:12;;;;;;;243.10;47.87;;;4.80;99.90;;;3.59;100.00;97845.31;5108788;28;20505;-73
2022/12/01 00:07:38;;;;;;;260.98;51.03;;;4.80;99.90;;;3.60;100.00;97851.38;5111226;28;20445;-74
2022/12/01 00:10:25;;;;;;;231.73;48.13;;;4.80;99.90;;;3.58;100.00;97848.13;5112223;28;20427;-74
2022/12/01 00:12:51;;;;;;;224.05;45.97;;;4.80;99.90;;;3.59;100.00;97849.75;5099406;28;20946;-73
2022/12/01 00:15:17;;;;;;;228.70;46.30;;;4.80;99.90;;;3.59;100.00;97845.31;5108242;28;20408;-74
2022/12/01 00:17:44;;;;;;;235.98;48.83;;;4.80;99.90;;;3.59;100.00;97845.31;5103518;28;20400;-74
2022/12/01 00:20:11;;;;;;;262.20;51.17;;;4.80;99.90;;;3.61;100.00;97847.75;5111864;28;20460;-74
2022/12/01 00:22:37;;;;;;;250.73;51.25;;;4.80;99.90;;;3.60;100.00;97846.13;5111638;28;20486;-73
2022/12/01 00:25:05;;;;;;;248.25;51.75;;;4.80;99.90;;;3.56;100.00;97845.69;5111500;28;20488;-74
2022/12/01 00:27:31;;;;;;;243.93;52.33;;;4.80;99.90;;;3.56;100.00;97848.31;5112130;28;20421;-74
2022/12/01 00:29:57;;;;;;;245.13;52.78;;;4.80;99.90;;;3.54;100.00;97852.94;5112061;28;20426;-74
2022/12/01 00:32:23;;;;;;;226.23;49.38;;;4.70;99.90;;;3.51;100.00;97842.88;5111754;27;20389;-74
2022/12/01 00:34:48;;;;;;;272.27;56.47;;;4.70;99.90;;;3.50;100.00;97847.28;5110977;28;20793;-74
2022/12/01 00:37:15;;;;;;;239.50;51.58;;;4.70;99.90;;;3.48;100.00;97846.69;5111634;28;20400;-74
2022/12/01 00:39:41;;;;;;;250.00;54.13;;;4.70;99.90;;;3.49;100.00;97852.72;5111694;28;20449;-74
2022/12/01 00:42:08;;;;;;;236.05;49.58;;;4.70;99.90;;;3.47;100.00;97845.06;5111574;28;20412;-74
2022/12/01 00:44:34;;;;;;;270.83;56.40;;;4.70;99.90;;;3.46;100.00;97846.06;5110608;28;20386;-74
2022/12/01 00:47:00;;;;;;;247.73;51.00;;;4.70;99.90;;;3.46;100.00;97850.47;5111576;28;20789;-73
2022/12/01 00:49:26;;;;;;;252.70;54.13;;;4.70;99.90;;;3.48;100.00;97843.25;5111717;28;20400;-74
2022/12/01 00:51:52;;;;;;;246.07;52.80;;;4.70;99.90;;;3.46;100.00;97840.81;5111469;28;20396;-74
2022/12/01 00:54:18;;;;;;;252.10;53.30;;;4.70;99.90;;;3.46;100.00;97846.06;5110405;28;20404;-74
2022/12/01 00:56:44;;;;;;;234.07;51.55;;;4.70;99.90;;;3.47;100.00;97852.91;5111389;28;20743;-74
2022/12/01 00:59:12;;;;;;;241.07;51.77;;;4.70;99.90;;;3.46;100.00;97853.09;5111279;28;20399;-75
2022/12/01 01:01:38;;;;;;;223.63;48.70;;;4.70;99.90;;;3.45;100.00;97848.88;5111141;28;20437;-74
2022/12/01 01:04:04;;;;;;;227.32;48.58;;;4.70;99.90;;;3.45;100.00;97847.09;5110380;28;20449;-74
2022/12/01 01:06:30;;;;;;;232.18;50.67;;;4.70;99.90;;;3.44;100.00;97842.03;5111147;28;20962;-74
2022/12/01 01:08:56;;;;;;;249.02;53.90;;;4.70;99.90;;;3.44;100.00;97855.94;5111022;28;20404;-74
2022/12/01 01:11:22;;;;;;;225.43;50.03;;;4.70;99.90;;;3.42;100.00;97850.06;5111104;28;20407;-74
2022/12/01 01:13:48;;;;;;;223.05;52.50;;;4.70;99.90;;;3.41;100.00;97851.06;5110281;28;20396;-73
2022/12/01 01:16:18;;;;;;;232.83;51.17;;;4.70;99.90;;;3.40;100.00;97848.66;5111113;28;20512;-74
2022/12/01 01:18:45;;;;;;;226.52;51.17;;;4.60;99.90;;;3.38;100.00;97845.44;5109803;28;20418;-74
2022/12/01 01:21:15;;;;;;;237.88;52.63;;;4.60;99.90;;;3.38;100.00;97855.91;5110743;28;20408;-74
2022/12/01 01:23:41;;;;;;;225.20;50.60;;;4.60;99.90;;;3.36;100.00;97855.28;5110065;28;20433;-74
2022/12/01 01:26:12;;;;;;;232.85;52.33;;;4.60;99.90;;;3.35;100.00;97858.91;5111025;28;20404;-74
2022/12/01 01:28:40;;;;;;;210.68;48.20;;;4.60;99.90;;;3.34;100.00;97863.31;5111020;28;21072;-73
2022/12/01 01:31:07;;;;;;;214.45;49.53;;;4.60;99.90;;;3.35;100.00;97861.50;5110811;28;20518;-74
2022/12/01 01:33:35;;;;;;;223.75;49.85;;;4.60;99.90;;;3.34;100.00;97855.47;5109768;28;20470;-74
2022/12/01 01:36:02;;;;;;;207.20;49.58;;;4.60;99.90;;;3.30;100.00;97861.28;5110446;28;20447;-74
2022/12/01 01:38:28;;;;;;;212.00;48.63;;;4.50;99.90;;;3.29;100.00;97857.06;5110686;28;20994;-75
2022/12/01 01:40:54;;;;;;;207.88;47.92;;;4.50;99.90;;;3.28;100.00;97865.91;5110363;28;20491;-74
2022/12/01 01:43:41;;;;;;;219.25;49.80;;;4.50;99.90;;;3.30;100.00;97869.13;5108310;28;20408;-74
2022/12/01 01:46:11;;;;;;;206.13;48.87;;;4.50;99.90;;;3.30;100.00;97861.28;5110522;28;25090;-74
2022/12/01 01:48:43;;;;;;;194.70;45.10;;;4.50;99.90;;;3.31;100.00;97858.47;5110408;28;20421;-74
2022/12/01 01:51:12;;;;;;;189.63;44.85;;;4.60;99.90;;;3.32;100.00;97867.94;5110388;28;20420;-74
2022/12/01 01:53:38;;;;;;;218.60;49.15;;;4.50;99.90;;;3.32;100.00;97874.97;5109422;28;20416;-73
2022/12/01 01:56:05;;;;;;;211.95;47.22;;;4.60;99.90;;;3.32;100.00;97860.06;5110458;28;21013;-74
2022/12/01 01:58:32;;;;;;;213.60;48.42;;;4.50;99.90;;;3.32;100.00;97867.13;5110476;28;20408;-74
2022/12/01 02:00:58;;;;;;;194.27;45.40;;;4.60;99.90;;;3.29;100.00;97865.72;5110360;28;20415;-74
2022/12/01 02:03:26;;;;;;;210.70;49.07;;;4.60;99.90;;;3.29;100.00;97859.66;5109547;28;20397;-74
2022/12/01 02:05:55;;;;;;;192.75;46.97;;;4.50;99.90;;;3.27;100.00;97857.25;5109096;28;20405;-73
2022/12/01 02:08:21;;;;;;;186.43;45.38;;;4.50;99.90;;;3.26;100.00;97866.09;5110313;28;20449;-74
2022/12/01 02:11:20;;;;;;;205.45;48.53;;;4.50;99.90;;;3.30;100.00;97863.91;5110800;28;20437;-74
2022/12/01 02:13:55;;;;;;;182.88;45.60;;;4.50;99.90;;;3.29;100.00;97860.47;5115935;28;20471;-74
2022/12/01 02:16:33;;;;;;;193.63;47.13;;;4.50;99.90;;;3.28;100.00;97861.47;5116885;28;25093;-74
2022/12/01 02:19:31;;;;;;;198.00;45.28;;;4.50;99.90;;;3.26;100.00;97858.25;5117155;27;20399;-74
2022/12/01 02:22:15;;;;;;;201.35;47.50;;;4.50;99.90;;;3.25;100.00;97859.22;5116663;27;25193;-74
2022/12/01 02:25:18;;;;;;;199.67;47.83;;;4.50;99.90;;;3.26;100.00;97850.38;5115995;27;25097;-73
2022/12/01 02:28:09;;;;;;;187.20;44.70;;;4.50;99.90;;;3.23;100.00;97853.41;5116919;27;25142;-73
2022/12/01 02:30:40;;;;;;;194.30;46.07;;;4.40;99.90;;;3.22;100.00;97849.19;5116885;27;20934;-73
2022/12/01 02:33:13;;;;;;;192.43;46.72;;;4.50;99.90;;;3.21;100.00;97852.78;5116109;27;20407;-74
2022/12/01 02:35:45;;;;;;;200.67;45.63;;;4.50;99.90;;;3.20;100.00;97852.97;5116985;27;20510;-74
2022/12/01 02:38:22;;;;;;;184.13;44.28;;;4.40;99.90;;;3.20;100.00;97850.34;5116985;27;20512;-75
2022/12/01 02:40:56;;;;;;;187.80;46.42;;;4.40;99.90;;;3.18;100.00;97845.31;5116925;27;20425;-75
2022/12/01 02:43:31;;;;;;;179.50;46.15;;;4.40;99.90;;;3.14;100.00;97841.47;5115962;27;20406;-74
2022/12/01 02:46:06;;;;;;;184.13;46.42;;;4.40;99.90;;;3.07;100.00;97838.03;5116720;27;25109;-73
2022/12/01 02:48:36;;;;;;;177.32;44.92;;;4.30;99.90;;;3.04;100.00;97846.25;5116899;27;20430;-74
2022/12/01 02:51:10;;;;;;;192.70;44.83;;;4.30;99.90;;;3.05;100.00;97847.84;5116644;27;20409;-75
2022/12/01 02:53:37;;;;;;;186.25;45.88;;;4.30;99.90;;;3.06;100.00;97850.28;5115545;27;25116;-74
2022/12/01 02:56:09;;;;;;;174.82;44.80;;;4.30;99.90;;;3.11;100.00;97839.25;5116747;27;20445;-74
2022/12/01 02:58:35;;;;;;;170.07;43.67;;;4.30;99.90;;;3.14;100.00;97849.31;5115455;28;20910;-74
2022/12/01 03:01:23;;;;;;;193.95;45.88;;;4.30;99.90;;;3.10;100.00;97861.97;5116575;27;20420;-74
2022/12/01 03:04:12;;;;;;;180.40;44.80;;;4.40;99.90;;;3.09;100.00;97862.16;5115757;27;25096;-73
2022/12/01 03:06:48;;;;;;;160.73;40.23;;;4.30;99.90;;;3.07;100.00;97851.91;5116614;27;20442;-74
2022/12/01 03:09:28;;;;;;;190.13;43.72;;;4.30;99.90;;;3.08;100.00;97842.25;5116402;27;25177;-74
2022/12/01 03:12:07;;;;;;;159.93;39.70;;;4.30;99.90;;;3.07;100.00;97851.91;5116465;27;20475;-74
2022/12/01 03:14:38;;;;;;;199.63;45.95;;;4.30;99.90;;;3.10;100.00;97843.66;5115639;27;20420;-74
2022/12/01 03:17:13;;;;;;;185.80;46.25;;;4.30;99.90;;;3.08;100.00;97839.63;5115242;28;20403;-73
2022/12/01 03:19:43;;;;;;;180.10;45.03;;;4.30;99.90;;;3.04;100.00;97848.84;5115116;28;25090;-73
2022/12/01 03:22:12;;;;;;;183.73;43.75;;;4.30;99.90;;;3.02;100.00;97845.63;5116325;27;20420;-74
2022/12/01 03:24:42;;;;;;;169.47;42.13;;;4.30;99.90;;;3.00;100.00;97845.81;5111193;28;20496;-74
2022/12/01 03:27:11;;;;;;;171.13;41.78;;;4.30;99.90;;;3.01;100.00;97846.59;5113328;27;20971;-73
2022/12/01 03:29:42;;;;;;;200.35;45.83;;;4.30;99.90;;;3.01;100.00;97846.59;5113116;28;20835;-74
2022/12/01 03:32:18;;;;;;;175.35;43.33;;;4.30;99.90;;;3.00;100.00;97845.81;5113144;28;20409;-74
2022/12/01 03:34:49;;;;;;;178.38;43.35;;;4.30;99.90;;;2.98;100.00;97839.97;5112104;28;25097;-73
2022/12/01 03:37:21;;;;;;;167.45;41.40;;;4.20;99.90;;;2.99;100.00;97841.59;5113162;28;20400;-74
2022/12/01 03:39:48;;;;;;;161.38;39.67;;;4.20;99.90;;;2.98;100.00;97847.81;5113204;28;20850;-74
2022/12/01 03:42:21;;;;;;;177.50;42.75;;;4.30;99.90;;;3.01;100.00;97851.84;5112739;28;20402;-74
2022/12/01 03:44:53;;;;;;;174.57;42.43;;;4.30;99.90;;;3.00;100.00;97843.22;5112012;28;25097;-74
2022/12/01 03:47:23;;;;;;;159.70;40.97;;;4.30;99.90;;;2.99;100.00;97844.22;5112928;28;20447;-74
2022/12/01 03:49:52;;;;;;;176.05;43.70;;;4.30;99.90;;;2.99;100.00;97843.41;5112851;27;20413;-73
2022/12/01 03:52:35;;;;;;;189.73;43.67;;;4.30;99.90;;;2.99;100.00;97848.63;5112606;27;20392;-74
2022/12/01 03:55:11;;;;;;;171.18;42.20;;;4.30;99.90;;;2.99;100.00;97853.84;5110343;28;25161;-74
2022/12/01 03:57:45;;;;;;;166.38;41.55;;;4.20;99.90;;;2.98;100.00;97847.00;5112479;28;25196;-75
2022/12/01 04:00:13;;;;;;;167.68;43.03;;;4.20;99.90;;;2.93;100.00;97852.00;5112397;27;25098;-74
2022/12/01 04:02:41;;;;;;;172.45;43.30;;;4.20;99.90;;;2.90;100.00;97847.97;5112070;27;20434;-74
2022/12/01 04:05:11;;;;;;;163.43;41.22;;;4.20;99.90;;;2.89;100.00;97851.56;5112263;27;20390;-74
2022/12/01 04:07:38;;;;;;;164.68;40.90;;;4.10;99.90;;;2.86;100.00;97848.50;5112403;28;20412;-74
2022/12/01 04:10:06;;;;;;;161.70;40.47;;;4.10;99.90;;;2.87;100.00;97853.56;5112516;28;20485;-74
2022/12/01 04:12:32;;;;;;;158.63;41.47;;;4.10;99.90;;;2.89;100.00;97853.38;5112121;28;20451;-75
2022/12/01 04:15:00;;;;;;;169.43;42.65;;;4.10;99.90;;;2.90;100.00;97850.56;5111435;28;20483;-74
2022/12/01 04:17:27;;;;;;;159.00;40.58;;;4.20;99.90;;;2.90;100.00;97850.56;5112269;28;20434;-74
2022/12/01 04:19:54;;;;;;;167.30;40.30;;;4.20;99.90;;;2.88;100.00;97852.56;5112290;28;20390;-74
2022/12/01 04:22:21;;;;;;;153.30;39.17;;;4.20;99.90;;;2.93;100.00;97854.63;5112066;28;20470;-72
2022/12/01 04:24:47;;;;;;;169.98;42.17;;;4.20;99.90;;;2.89;100.00;97854.19;5111569;28;20390;-74
2022/12/01 04:27:13;;;;;;;171.05;41.90;;;4.10;99.90;;;2.85;100.00;97852.16;5112113;28;21115;-74
2022/12/01 04:29:39;;;;;;;166.60;41.10;;;4.10;99.90;;;2.85;100.00;97850.34;5111975;28;20407;-75
2022/12/01 04:32:06;;;;;;;164.52;41.53;;;4.10;99.90;;;2.85;100.00;97849.53;5111910;28;20479;-74
2022/12/01 04:34:32;;;;;;;164.43;40.97;;;4.10;99.90;;;2.85;100.00;97857.38;5110826;28;20818;-74
2022/12/01 04:36:59;;;;;;;167.73;41.53;;;4.10;99.90;;;2.85;100.00;97852.97;5111956;28;20403;-74
2022/12/01 04:39:25;;;;;;;165.52;41.00;;;4.10;99.90;;;2.84;100.00;97853.97;5111852;28;20457;-75
2022/12/01 04:41:51;;;;;;;154.35;39.20;;;4.10;99.90;;;2.84;100.00;97851.34;5111690;28;20504;-75
2022/12/01 04:44:17;;;;;;;192.43;45.20;;;4.10;99.90;;;2.86;100.00;97858.97;5109527;28;21148;-75
2022/12/01 04:46:43;;;;;;;189.25;42.70;;;4.10;99.90;;;2.85;100.00;97860.00;5106970;27;20406;-74
2022/12/01 04:49:09;;;;;;;168.10;41.47;;;4.10;99.90;;;2.84;100.00;97856.56;5124274;27;20393;-73
2022/12/01 04:51:35;;;;;;;175.02;42.75;;;4.10;99.90;;;2.83;100.00;97859.38;5117711;27;20735;-73
2022/12/01 04:54:04;;;;;;;174.80;42.45;;;4.10;99.90;;;2.83;100.00;97856.75;5121634;22;20417;-75
2022/12/01 04:56:30;;;;;;;167.20;41.58;;;4.10;99.90;;;2.80;100.00;97855.31;5090599;28;20766;-75
2022/12/01 04:58:57;;;;;;;169.65;40.85;;;4.10;99.90;;;2.80;100.00;97852.72;5080979;28;20431;-75
2022/12/01 05:01:24;;;;;;;153.63;40.00;;;4.10;99.90;;;2.80;100.00;97857.94;5082800;28;20500;-74
2022/12/01 05:03:50;;;;;;;173.38;40.70;;;4.10;99.90;;;2.81;100.00;97856.94;5087052;28;20467;-74
2022/12/01 05:06:18;;;;;;;188.63;42.75;;;4.10;99.90;;;2.80;100.00;97857.13;5089995;28;20402;-75
2022/12/01 05:08:44;;;;;;;162.13;41.60;;;4.10;99.90;;;2.78;100.00;97857.34;5090409;28;20927;-75
2022/12/01 05:11:13;;;;;;;191.90;47.37;;;4.10;99.90;;;2.83;100.00;97859.38;5090596;28;20394;-73
2022/12/01 05:13:41;;;;;;;164.80;41.65;;;4.10;99.90;;;2.80;100.00;97865.78;5089440;28;20402;-74
2022/12/01 05:16:09;;;;;;;153.48;39.90;;;4.10;99.90;;;2.79;100.00;97860.72;5085737;28;20827;-74
2022/12/01 05:18:35;;;;;;;174.50;41.45;;;4.10;99.90;;;2.79;100.00;97863.34;5087000;28;20428;-74
2022/12/01 05:21:02;;;;;;;172.77;42.80;;;4.10;99.90;;;2.78;100.00;97864.38;5076390;28;20465;-74
2022/12/01 05:23:31;;;;;;;147.50;39.28;;;4.00;99.90;;;2.75;100.00;97857.72;5087126;28;20398;-73
2022/12/01 05:25:57;;;;;;;159.73;39.92;;;4.00;99.90;;;2.75;100.00;97856.91;5085160;28;20419;-72
2022/12/01 05:28:25;;;;;;;162.75;40.53;;;4.00;99.90;;;2.74;100.00;97861.31;5082781;28;20413;-73
2022/12/01 05:30:53;;;;;;;165.85;41.75;;;4.00;99.90;;;2.74;100.00;97856.09;5081602;28;20402;-73
2022/12/01 05:33:19;;;;;;;163.63;40.80;;;4.00;99.90;;;2.75;100.00;97865.53;5077614;28;20396;-73
2022/12/01 05:35:46;;;;;;;159.20;39.65;;;4.00;99.90;;;2.75;100.00;97862.13;5082848;28;20410;-73
2022/12/01 05:38:12;;;;;;;174.43;43.17;;;4.00;99.90;;;2.75;100.00;97867.34;5077202;28;20482;-73
2022/12/01 05:40:38;;;;;;;181.10;46.28;;;4.00;99.90;;;2.73;100.00;97865.72;5078722;28;20502;-73
2022/12/01 05:43:04;;;;;;;166.20;42.28;;;4.00;99.90;;;2.71;100.00;97862.50;5082350;28;20439;-73
2022/12/01 05:45:32;;;;;;;166.95;41.65;;;4.00;99.90;;;2.72;100.00;97865.91;5086717;28;20398;-74
2022/12/01 05:48:00;;;;;;;164.85;42.72;;;4.00;99.90;;;2.72;100.00;97861.50;5084913;28;20389;-73
2022/12/01 05:50:29;;;;;;;174.68;43.42;;;4.00;99.90;;;2.72;100.00;97863.31;5077941;28;20467;-73
2022/12/01 05:53:01;;;;;;;165.60;43.17;;;4.00;99.90;;;2.71;100.00;97867.72;5075877;28;20725;-74
2022/12/01 05:55:27;;;;;;;164.23;43.42;;;4.00;99.90;;;2.68;100.00;97865.50;5082759;28;25102;-72
2022/12/01 05:57:53;;;;;;;172.70;44.38;;;3.90;99.90;;;2.68;100.00;97867.31;5083412;28;20479;-72
2022/12/01 06:00:20;;;;;;;178.43;44.38;;;3.90;99.90;;;2.68;100.00;97864.69;5078212;28;20514;-73
2022/12/01 06:02:47;;;;;;;187.93;46.63;;;3.90;99.90;;;2.69;100.00;97880.19;5077641;28;20411;-73
2022/12/01 06:05:13;;;;;;;176.18;44.58;;;4.00;99.90;;;2.70;100.00;97870.53;5081948;28;20484;-73
2022/12/01 06:07:39;;;;;;;183.23;45.53;;;4.00;99.90;;;2.70;100.00;97873.97;5079354;28;20532;-74
2022/12/01 06:10:08;;;;;;;182.40;46.03;;;4.00;99.90;;;2.71;100.00;97870.34;5085513;28;20402;-76
2022/12/01 06:12:34;;;;;;;176.82;46.05;;;4.00;99.90;;;2.69;100.00;97863.69;5072653;28;20903;-73
2022/12/01 06:15:00;;;;;;;173.23;45.08;;;4.00;99.90;;;2.68;100.00;97868.13;5087577;28;20753;-73
2022/12/01 06:17:26;;;;;;;171.38;44.83;;;4.00;99.90;;;2.68;100.00;97865.50;5081320;28;20398;-73
2022/12/01 06:19:54;;;;;;;189.07;44.55;;;4.00;99.90;;;2.70;100.00;97875.78;5089772;28;20437;-73
2022/12/01 06:22:19;;;;;;;183.32;45.50;;;3.90;99.90;;;2.69;100.00;97869.75;5089622;28;20504;-73
2022/12/01 06:24:45;;;;;;;191.00;48.13;;;4.00;99.90;;;2.68;100.00;97862.88;5087706;28;20526;-72
2022/12/01 06:27:11;;;;;;;186.00;46.72;;;3.90;99.90;;;2.67;100.00;97869.09;5081600;28;20422;-73
2022/12/01 06:29:37;;;;;;;203.23;48.35;;;4.00;99.90;;;2.68;100.00;97869.91;5083450;28;20533;-72
2022/12/01 06:32:04;;;;;;;174.90;44.73;;;3.90;99.90;;;2.66;100.00;97877.94;5087385;28;20456;-72
2022/12/01 06:34:30;;;;;;;177.98;46.13;;;3.90;99.90;;;2.68;100.00;97880.38;5077665;28;20405;-73
2022/12/01 06:36:57;;;;;;;170.82;42.35;;;3.90;99.90;;;2.69;100.00;97887.22;5081322;28;20453;-71
2022/12/01 06:39:23;;;;;;;180.90;45.63;;;4.00;99.90;;;2.69;100.00;97893.25;5079188;28;20888;-72
2022/12/01 06:41:48;;;;;;;186.88;47.38;;;4.00;99.90;;;2.71;100.00;97898.28;5078179;28;20560;-72
2022/12/01 06:44:14;;;;;;;184.70;47.17;;;4.00;99.90;;;2.72;100.00;97895.47;5078890;28;20409;-72
2022/12/01 06:46:40;;;;;;;179.38;44.08;;;4.00;99.90;;;2.71;100.00;97893.84;5078809;28;20492;-72
2022/12/01 06:49:09;;;;;;;191.88;47.03;;;4.00;99.90;;;2.70;100.00;97897.50;5078599;28;20400;-73
2022/12/01 06:51:35;;;;;;;166.95;44.42;;;4.00;99.90;;;2.70;100.00;97896.69;5077911;28;20889;-72
2022/12/01 06:54:03;;;;;;;172.57;43.80;;;3.90;99.90;;;2.68;100.00;97888.22;5078184;28;20421;-73
2022/12/01 06:56:29;;;;;;;168.48;45.28;;;3.90;99.90;;;2.66;100.00;97895.44;5080167;28;20396;-73
2022/12/01 06:58:56;;;;;;;169.83;43.13;;;3.90;99.90;;;2.66;100.00;97898.84;5080906;28;20956;-72
2022/12/01 07:01:22;;;;;;;186.48;48.70;;;3.90;99.90;;;2.69;100.00;97900.28;5098425;28;20411;-72
2022/12/01 07:03:48;;;;;;;173.53;45.90;;;3.90;99.90;;;2.68;100.00;97906.50;5082687;28;20822;-71
2022/12/01 07:06:15;;;;;;;160.07;42.72;;;3.90;99.90;;;2.67;100.00;97897.84;5081502;28;20399;-71
2022/12/01 07:08:41;;;;;;;164.90;44.25;;;3.90;99.90;;;2.70;100.00;97889.66;5082939;28;20755;-71
2022/12/01 07:11:11;;;;;;;173.93;45.17;;;3.90;99.90;;;2.68;100.00;97899.47;5083025;28;20481;-73
2022/12/01 07:13:38;;;;;;;178.32;45.75;;;3.90;99.90;;;2.67;100.00;97903.09;5082549;28;20409;-73
2022/12/01 07:16:06;;;;;;;185.88;46.72;;;4.00;99.90;;;2.66;100.00;97906.69;5082541;28;20419;-72
2022/12/01 07:18:33;;;;;;;187.55;47.08;;;3.90;99.90;;;2.65;100.00;97912.09;5081459;28;20477;-72
2022/12/01 07:20:59;;;;;;;155.70;43.53;;;3.90;99.90;;;2.65;100.00;97912.91;5082863;28;20392;-73
2022/12/01 07:23:25;;;;;;;159.35;42.65;;;3.90;99.90;;;2.65;100.00;97912.91;5081874;28;20403;-73
2022/12/01 07:25:58;;;;;;;176.82;45.35;;;3.90;99.90;;;2.64;100.00;97902.63;5081417;28;20415;-75
2022/12/01 07:28:26;;;;;;;159.50;43.30;;;3.90;99.90;;;2.65;100.00;97914.72;5082290;28;20414;-73
2022/12/01 07:30:52;;;;;;;185.10;46.63;;;3.90;99.90;;;2.65;100.00;97910.28;5088606;28;20431;-71
2022/12/01 07:33:17;;;;;;;184.65;47.95;;;3.90;99.90;;;2.64;100.00;97918.31;5091883;28;20725;-71
2022/12/01 07:35:43;;;;;;;170.75;46.20;;;3.90;99.90;;;2.64;100.00;97921.75;5092620;28;20818;-71
2022/12/01 07:38:09;;;;;;;167.60;45.37;;;3.90;99.90;;;2.64;100.00;97918.31;5092615;28;20437;-71
2022/12/01 07:40:35;;;;;;;158.02;41.90;;;3.90;99.90;;;2.67;100.00;97920.56;5092404;28;20451;-72
2022/12/01 07:43:01;;;;;;;166.82;42.40;;;3.90;99.90;;;2.68;100.00;97919.56;5091521;28;20527;-71
2022/12/01 07:45:28;;;;;;;168.23;43.13;;;3.90;99.90;;;2.68;100.00;97925.63;5092377;28;20441;-71
2022/12/01 07:47:54;;;;;;;175.30;43.88;;;4.00;99.90;;;2.70;100.00;97922.81;5083669;28;20413;-71
2022/12/01 07:50:20;;;;;;;163.33;43.73;;;4.00;99.90;;;2.72;100.00;97923.41;5081566;28;20491;-73
2022/12/01 07:52:48;;;;;;;162.70;45.72;;;3.90;99.90;;;2.66;100.00;97926.78;5084416;28;20401;-73
2022/12/01 07:55:14;;;;;;;163.15;45.15;;;3.90;99.90;;;2.64;100.00;97929.59;5082524;28;20423;-73
2022/12/01 07:57:40;;;;;;;159.18;43.85;;;3.90;99.90;;;2.61;100.00;97922.13;5082709;28;20443;-76
2022/12/01 08:00:08;;;;;;;162.98;44.60;;;3.80;99.90;;;2.63;100.00;97916.72;5083170;28;20407;-74
2022/12/01 08:02:35;;;;;;;156.73;43.70;;;3.90;99.90;;;2.64;100.00;97926.97;5097467;28;20763;-73
2022/12/01 08:05:01;;;;;;;173.55;44.65;;;3.90;99.90;;;2.63;100.00;97922.72;5081991;28;20403;-73
2022/12/01 08:07:27;;;;;;;172.93;44.55;;;3.90;99.90;;;2.65;100.00;97920.75;5080925;28;20439;-73
2022/12/01 08:09:53;;;;;;;180.68;46.40;;;3.90;99.90;;;2.69;100.00;97929.03;5080302;28;20426;-73
2022/12/01 08:12:18;;;;;;;160.93;43.67;;;3.90;99.90;;;2.70;100.00;97933.28;5082151;28;20490;-73
2022/12/01 08:14:44;;;;;;;163.60;45.27;;;3.90;99.90;;;2.69;100.00;97927.25;5079637;28;20395;-73
2022/12/01 08:17:10;;;;;;;163.98;43.83;;;3.90;99.90;;;2.70;100.00;97934.09;5081408;28;20405;-72
2022/12/01 08:19:37;;;;;;;158.80;42.63;;;4.00;99.90;;;2.71;100.00;97925.22;5075483;28;20449;-73
2022/12/01 08:22:03;;;;;;;151.93;43.10;;;4.00;99.90;;;2.70;100.00;97925.44;5071280;28;20435;-74
2022/12/01 08:24:29;;;;;;;151.60;41.90;;;3.90;99.90;;;2.68;100.00;97927.41;5086205;28;20404;-74
2022/12/01 08:26:55;;;;;;;167.83;44.27;;;3.90;99.90;;;2.68;100.00;97925.63;5071480;28;20878;-73
2022/12/01 08:29:21;;;;;;;155.82;41.70;;;3.90;99.90;;;2.69;100.00;97942.09;5072517;28;20499;-73
2022/12/01 08:31:47;;;;;;;146.40;41.10;;;4.00;99.90;;;2.70;100.00;97949.78;5086480;28;20871;-73
2022/12/01 08:34:13;;;;;;;148.05;40.50;;;3.90;99.90;;;2.72;100.00;97947.75;5090386;28;20456;-73
2022/12/01 08:36:40;;;;;;;154.57;42.13;;;4.00;99.90;;;2.76;100.00;97942.16;5091287;28;20489;-73
2022/12/01 08:39:07;;;;;;;142.70;41.60;;;4.00;99.90;;;2.79;100.00;97949.63;5091210;28;20401;-73
2022/12/01 08:41:33;;;;;;;148.75;41.10;;;4.00;99.90;;;2.77;100.00;97944.59;5090940;28;20412;-73
2022/12/01 08:43:59;;;;;;;159.23;43.83;;;4.00;99.90;;;2.78;100.00;97950.63;5090219;28;20435;-73
2022/12/01 08:46:26;;;;;;;143.57;41.80;;;4.00;99.90;;;2.76;100.00;97950.00;5091162;28;20876;-73
2022/12/01 08:48:53;;;;;;;144.88;40.03;;;4.00;99.90;;;2.77;100.00;97949.00;5091184;28;20394;-73
2022/12/01 08:51:19;;;;;;;157.77;44.25;;;4.00;99.90;;;2.77;100.00;97949.81;5090997;28;20942;-73
2022/12/01 08:53:48;;;;;;;152.82;43.45;;;4.00;99.90;;;2.76;100.00;97955.22;5090102;28;20497;-73
2022/12/01 08:56:17;;;;;;;135.98;38.67;;;4.00;99.90;;;2.79;100.00;97952.22;5084266;28;20394;-72
2022/12/01 08:58:44;;;;;;;137.15;38.45;;;4.00;99.90;;;2.81;100.00;97950.25;5090815;28;20769;-73
2022/12/01 09:01:12;;;;;;;147.93;41.65;;;4.00;99.90;;;2.84;100.00;97950.69;5090698;28;20551;-73
2022/12/01 09:03:39;;;;;;;139.40;39.28;;;4.10;99.90;;;2.87;100.00;97947.69;5105830;28;20963;-72
2022/12/01 09:06:08;;;;;;;148.10;41.92;;;4.10;99.90;;;2.88;100.00;97938.03;5090930;28;21105;-73
2022/12/01 09:08:35;;;;;;;143.85;40.00;;;4.10;99.90;;;2.89;100.00;97947.50;5090870;28;20405;-73
2022/12/01 09:11:06;;;;;;;133.27;38.92;;;4.10;99.90;;;2.89;100.00;97940.47;5090657;28;20399;-73
2022/12/01 09:13:35;;;;;;;135.73;38.55;;;4.10;99.90;;;2.92;100.00;97952.38;5089883;28;20399;-74
2022/12/01 09:16:05;;;;;;;134.18;38.95;;;4.20;99.90;;;2.91;100.00;97945.50;5090725;28;20415;-73
2022/12/01 09:18:31;;;;;;;145.23;40.15;;;4.10;99.90;;;2.89;100.00;97955.34;5088701;28;20535;-74
2022/12/01 09:20:58;;;;;;;137.10;40.10;;;4.10;99.90;;;2.89;100.00;97942.28;5084556;28;20457;-74
2022/12/01 09:23:25;;;;;;;148.07;40.65;;;4.10;99.90;;;2.88;100.00;97951.09;5089443;28;20407;-73
2022/12/01 09:25:51;;;;;;;143.18;38.95;;;4.10;99.90;;;2.87;100.00;97952.09;5090252;28;20760;-74
2022/12/01 09:28:19;;;;;;;139.00;39.80;;;4.10;99.90;;;2.87;100.00;97952.91;5090282;28;20407;-74
2022/12/01 09:30:45;;;;;;;136.63;38.67;;;4.10;99.90;;;2.87;100.00;97950.28;5090426;28;20394;-73
2022/12/01 09:33:12;;;;;;;152.87;42.23;;;4.10;99.90;;;2.89;100.00;97948.31;5089320;28;20887;-72
2022/12/01 09:35:38;;;;;;;137.25;42.30;;;4.10;99.90;;;2.88;100.00;97945.88;5090256;28;20854;-73
2022/12/01 09:38:04;;;;;;;138.13;41.35;;;4.10;99.90;;;2.87;100.00;97944.25;5090112;28;20409;-73
2022/12/01 09:40:34;;;;;;;143.68;41.92;;;4.10;99.90;;;2.88;100.00;97951.91;5090103;28;20402;-73
2022/12/01 09:43:04;;;;;;;132.95;40.10;;;4.10;99.90;;;2.88;100.00;97953.72;5083146;28;20560;-73
2022/12/01 09:45:38;;;;;;;134.13;39.13;;;4.10;99.90;;;2.89;100.00;97950.13;5087752;28;20777;-73
2022/12/01 09:48:05;;;;;;;137.75;39.08;;;4.10;99.90;;;2.89;100.00;97947.50;5089903;28;20399;-74
2022/12/01 09:50:31;;;;;;;134.10;40.65;;;4.10;99.90;;;2.88;100.00;97945.88;5090278;28;20403;-73
2022/12/01 09:53:01;;;;;;;125.20;38.47;;;4.10;99.90;;;2.85;100.00;97947.09;5088831;28;20821;-74
2022/12/01 09:55:30;;;;;;;140.75;40.42;;;4.10;99.90;;;2.84;100.00;97942.03;5089669;28;20417;-74
2022/12/01 09:57:58;;;;;;;124.65;38.63;;;4.10;99.90;;;2.84;100.00;97945.47;5089967;28;20402;-73
2022/12/01 10:00:28;;;;;;;146.40;41.50;;;4.10;99.90;;;2.87;100.00;97949.50;5089856;28;20412;-73
2022/12/01 10:03:04;;;;;;;134.00;39.30;;;4.10;99.90;;;2.86;100.00;97951.28;5088919;28;20421;-73
2022/12/01 10:05:41;;;;;;;132.25;39.03;;;4.10;99.90;;;2.89;100.00;97945.69;5089997;28;25136;-73
2022/12/01 10:08:13;;;;;;;148.40;41.42;;;4.10;99.90;;;2.93;100.00;97941.69;5089869;28;20408;-71
2022/12/01 10:10:44;;;;;;;138.70;40.38;;;4.10;99.90;;;2.92;100.00;97932.25;5089762;28;20405;-72